Time;durP1;ratioP1;P1;durP2;ratioP2;P2;SDS_P1;SDS_P2;PMS_P1;PMS_P2;Temp;Humidity;BMP_temperature;BMP_pressure;BME280_temperature;BME280_humidity;BME280_pressure;Samples;Min_cycle;Max_cycle;Signal;HPM_P1;HPM_P2
2022/07/07 00:01:29;;;;;;;2.03;1.83;;;25.30;42.40;;;;;;5072768;27;20530;-47
2022/07/07 00:04:10;;;;;;;3.50;2.13;;;25.30;42.40;;;;;;5077893;28;20965;-47
2022/07/07 00:06:50;;;;;;;2.10;1.93;;;25.30;42.40;;;;;;5040394;28;20599;-47
2022/07/07 00:09:31;;;;;;;4.50;1.90;;;25.30;42.40;;;;;;5078380;28;20567;-50
2022/07/07 00:12:11;;;;;;;2.20;2.00;;;25.30;42.40;;;;;;5096493;27;1250257;-49
2022/07/07 00:14:52;;;;;;;2.00;1.63;;;25.30;42.40;;;;;;5107279;27;20591;-47
2022/07/07 00:17:32;;;;;;;1.80;1.70;;;25.30;42.40;;;;;;5134214;27;20550;-47
2022/07/07 00:20:13;;;;;;;2.00;1.90;;;25.30;42.40;;;;;;5086616;28;20576;-48
2022/07/07 00:22:55;;;;;;;2.00;1.80;;;25.20;42.40;;;;;;5067372;27;20613;-49
2022/07/07 00:25:36;;;;;;;3.07;2.50;;;25.20;42.40;;;;;;5101882;27;20604;-47
2022/07/07 00:28:16;;;;;;;2.63;2.30;;;25.30;42.40;;;;;;5150067;27;20523;-50
2022/07/07 00:30:56;;;;;;;1.90;1.73;;;25.20;42.40;;;;;;5082146;27;21081;-47
2022/07/07 00:33:37;;;;;;;2.10;1.90;;;25.20;42.50;;;;;;5118269;27;20580;-49
2022/07/07 00:36:17;;;;;;;2.70;1.67;;;25.20;42.60;;;;;;5104052;27;20543;-50
2022/07/07 00:38:59;;;;;;;2.47;2.00;;;25.30;42.70;;;;;;5090143;27;20540;-48
2022/07/07 00:41:40;;;;;;;1.67;1.57;;;25.20;42.60;;;;;;5097991;27;20597;-49
2022/07/07 00:44:20;;;;;;;1.87;1.73;;;25.20;42.60;;;;;;5087873;28;20929;-47
2022/07/07 00:47:01;;;;;;;2.53;2.30;;;25.20;42.70;;;;;;5095823;23;20610;-73
2022/07/07 00:49:43;;;;;;;2.57;2.30;;;25.20;42.60;;;;;;5087862;28;20582;-49
2022/07/07 00:52:24;;;;;;;2.47;2.27;;;25.20;42.70;;;;;;5073014;27;20539;-49
2022/07/07 00:55:08;;;;;;;2.03;1.93;;;25.20;42.70;;;;;;5108448;27;20602;-48
2022/07/07 00:57:48;;;;;;;4.83;2.50;;;25.20;42.70;;;;;;5069087;27;20590;-49
2022/07/07 01:00:30;;;;;;;2.77;2.30;;;25.20;42.70;;;;;;5108417;27;20521;-50
2022/07/07 01:03:11;;;;;;;1.80;1.70;;;25.20;42.80;;;;;;5081125;28;20593;-48
2022/07/07 01:05:54;;;;;;;2.43;2.23;;;25.20;42.80;;;;;;5072776;27;20527;-53
2022/07/07 01:08:35;;;;;;;2.70;2.50;;;25.20;42.80;;;;;;5082093;27;20590;-48
2022/07/07 01:11:15;;;;;;;2.03;1.83;;;25.10;42.70;;;;;;5077075;27;20591;-48
2022/07/07 01:13:57;;;;;;;2.80;2.60;;;25.10;42.80;;;;;;5087293;28;20535;-49
2022/07/07 01:16:38;;;;;;;2.80;2.60;;;25.10;42.80;;;;;;5063861;28;20542;-49
2022/07/07 01:19:21;;;;;;;2.23;2.00;;;25.10;42.80;;;;;;5088435;27;20568;-48
2022/07/07 01:22:07;;;;;;;3.40;2.47;;;25.10;42.90;;;;;;5048195;27;20602;-48
2022/07/07 01:24:47;;;;;;;4.20;2.40;;;25.10;42.90;;;;;;5100615;27;20583;-49
2022/07/07 01:27:28;;;;;;;2.90;2.43;;;25.10;42.90;;;;;;5037530;27;20538;-49
2022/07/07 01:30:11;;;;;;;2.80;2.50;;;25.10;42.90;;;;;;5129293;27;20866;-51
2022/07/07 01:32:51;;;;;;;2.10;1.97;;;25.10;43.00;;;;;;5061355;27;20618;-47
2022/07/07 01:35:31;;;;;;;2.07;1.87;;;25.10;43.00;;;;;;5087818;28;20587;-49
2022/07/07 01:38:12;;;;;;;2.10;1.90;;;25.10;43.10;;;;;;5085547;28;20540;-48
2022/07/07 01:40:54;;;;;;;3.33;1.90;;;25.10;43.20;;;;;;5062412;28;20931;-47
2022/07/07 01:43:34;;;;;;;2.47;2.13;;;25.10;43.00;;;;;;5087961;27;20577;-49
2022/07/07 01:46:13;;;;;;;1.97;1.53;;;25.10;43.10;;;;;;5061515;27;20548;-48
2022/07/07 01:48:55;;;;;;;2.53;2.33;;;25.10;43.10;;;;;;5085523;27;20538;-49
2022/07/07 01:51:35;;;;;;;2.20;2.00;;;25.10;43.20;;;;;;5110158;27;1227953;-49
2022/07/07 01:54:16;;;;;;;1.80;1.70;;;25.10;43.20;;;;;;5107593;27;21168;-47
2022/07/07 01:56:58;;;;;;;1.73;1.63;;;25.10;43.20;;;;;;5046343;28;20590;-48
2022/07/07 01:59:40;;;;;;;2.27;2.07;;;25.10;43.20;;;;;;5108400;27;20525;-47
2022/07/07 02:02:20;;;;;;;2.10;2.00;;;25.10;43.30;;;;;;5065440;27;20625;-51
2022/07/07 02:05:02;;;;;;;3.50;2.10;;;25.10;43.40;;;;;;5088283;28;21033;-47
2022/07/07 02:07:45;;;;;;;3.10;2.77;;;25.10;43.40;;;;;;5069719;27;20540;-48
2022/07/07 02:13:24;;;;;;;3.40;2.25;;;25.00;43.40;;;;;;5137332;27;1207848;-49
2022/07/07 02:16:06;;;;;;;1.97;1.80;;;25.00;43.40;;;;;;5102362;27;20543;-50
2022/07/07 02:18:48;;;;;;;2.27;2.07;;;25.00;43.50;;;;;;5085330;27;20592;-49
2022/07/07 02:21:28;;;;;;;2.53;2.07;;;25.00;43.60;;;;;;5074337;27;21119;-48
2022/07/07 02:24:09;;;;;;;2.43;2.23;;;25.00;43.70;;;;;;5079637;27;20551;-50
2022/07/07 02:26:49;;;;;;;2.57;2.37;;;25.00;43.80;;;;;;5058352;28;20593;-50
2022/07/07 02:29:31;;;;;;;2.47;2.27;;;24.90;43.70;;;;;;5128849;27;20575;-48
2022/07/07 02:32:12;;;;;;;2.70;1.90;;;24.90;43.80;;;;;;5053723;28;20548;-48
2022/07/07 02:34:53;;;;;;;2.00;1.90;;;24.90;43.90;;;;;;5088114;28;20864;-49
2022/07/07 02:37:33;;;;;;;2.40;2.20;;;24.90;43.90;;;;;;5060265;27;20948;-51
2022/07/07 02:40:13;;;;;;;2.20;1.77;;;24.90;44.00;;;;;;5123425;27;20536;-49
2022/07/07 02:42:54;;;;;;;2.10;1.93;;;24.90;44.00;;;;;;5067721;27;20559;-48
2022/07/07 02:45:34;;;;;;;2.30;2.10;;;24.90;45.30;;;;;;5081845;28;20539;-49
2022/07/07 02:48:15;;;;;;;3.20;2.90;;;24.90;44.10;;;;;;5126612;27;20532;-48
2022/07/07 02:50:57;;;;;;;2.83;2.30;;;24.90;44.30;;;;;;5083019;28;20515;-48
2022/07/07 02:53:37;;;;;;;3.13;1.97;;;24.90;44.40;;;;;;5104397;27;20597;-48
2022/07/07 02:56:18;;;;;;;3.10;2.80;;;24.80;44.40;;;;;;5071961;27;20950;-48
2022/07/07 02:58:59;;;;;;;2.63;2.43;;;24.80;45.60;;;;;;5129416;27;20510;-51
2022/07/07 03:01:39;;;;;;;7.80;2.37;;;24.90;44.40;;;;;;5119462;27;21057;-52
2022/07/07 03:04:21;;;;;;;2.20;2.10;;;24.90;44.50;;;;;;5093393;28;20611;-49
2022/07/07 03:07:01;;;;;;;3.57;2.60;;;24.80;44.40;;;;;;5057283;27;21102;-48
2022/07/07 03:09:42;;;;;;;2.80;2.33;;;24.90;44.50;;;;;;5126086;27;20538;-51
2022/07/07 03:12:23;;;;;;;1.77;1.67;;;24.80;44.50;;;;;;5058345;27;20674;-48
2022/07/07 03:15:04;;;;;;;2.10;2.00;;;24.80;44.50;;;;;;5087972;27;21090;-47
2022/07/07 03:17:46;;;;;;;3.10;2.03;;;24.80;44.60;;;;;;5050082;27;20610;-49
2022/07/07 03:20:26;;;;;;;2.43;2.23;;;24.80;44.60;;;;;;5087541;28;20513;-50
2022/07/07 03:23:07;;;;;;;2.37;2.17;;;24.90;44.80;;;;;;5085210;27;20596;-49
2022/07/07 03:25:49;;;;;;;2.77;2.10;;;24.80;44.60;;;;;;5075182;28;20583;-49
2022/07/07 03:28:30;;;;;;;2.23;2.00;;;24.80;44.70;;;;;;5088003;27;21000;-48
2022/07/07 03:31:11;;;;;;;2.30;1.83;;;24.80;44.70;;;;;;5078423;28;20534;-48
2022/07/07 03:33:53;;;;;;;2.30;2.10;;;24.80;44.80;;;;;;5086309;27;20534;-48
2022/07/07 03:36:35;;;;;;;2.27;2.07;;;24.80;44.80;;;;;;5050459;28;20542;-50
2022/07/07 03:39:16;;;;;;;1.80;1.70;;;24.80;44.90;;;;;;5080154;27;20917;-48
2022/07/07 03:41:57;;;;;;;2.30;1.93;;;24.80;44.90;;;;;;5055612;27;20550;-48
2022/07/07 03:44:37;;;;;;;2.70;2.03;;;24.80;46.10;;;;;;5087917;27;21042;-48
2022/07/07 03:47:19;;;;;;;2.43;2.23;;;24.80;45.10;;;;;;5095071;27;20571;-49
2022/07/07 03:50:01;;;;;;;2.70;1.73;;;24.80;45.10;;;;;;5076786;27;20656;-49
2022/07/07 03:52:43;;;;;;;2.07;1.80;;;24.70;45.10;;;;;;5059465;27;20601;-49
2022/07/07 03:55:23;;;;;;;2.20;1.90;;;24.70;45.10;;;;;;5088438;28;20532;-49
2022/07/07 03:58:12;;;;;;;2.67;1.90;;;24.70;45.20;;;;;;5087919;28;21103;-49
2022/07/07 04:00:54;;;;;;;2.03;1.80;;;24.70;45.20;;;;;;5081617;27;20578;-47
2022/07/07 04:03:35;;;;;;;2.10;1.90;;;24.70;45.30;;;;;;5107533;27;20642;-48
2022/07/07 04:06:16;;;;;;;3.00;1.97;;;24.70;45.30;;;;;;5100509;27;20957;-49
2022/07/07 04:08:57;;;;;;;1.90;1.70;;;24.70;45.50;;;;;;5100497;27;20588;-48
2022/07/07 04:11:38;;;;;;;2.00;1.70;;;24.70;45.70;;;;;;5078001;27;20564;-47
2022/07/07 04:14:19;;;;;;;2.93;2.10;;;24.70;45.70;;;;;;5088463;28;20575;-49
2022/07/07 04:17:00;;;;;;;2.00;1.80;;;24.70;45.80;;;;;;5046878;28;20621;-49
2022/07/07 04:19:40;;;;;;;1.60;1.50;;;24.70;45.80;;;;;;5125527;27;20612;-50
2022/07/07 04:22:22;;;;;;;1.83;1.60;;;24.70;45.90;;;;;;5060637;27;20576;-48
2022/07/07 04:25:03;;;;;;;2.23;1.97;;;24.70;45.90;;;;;;5068750;27;21052;-50
2022/07/07 04:27:44;;;;;;;2.10;1.90;;;24.70;46.00;;;;;;5061295;28;20590;-49
2022/07/07 04:30:26;;;;;;;2.20;1.63;;;24.70;45.90;;;;;;5088055;28;20584;-49
2022/07/07 04:33:08;;;;;;;1.93;1.77;;;24.70;46.00;;;;;;5085204;28;20530;-50
2022/07/07 04:35:48;;;;;;;1.90;1.80;;;24.70;46.20;;;;;;5079939;27;20552;-48
2022/07/07 04:38:30;;;;;;;1.87;1.63;;;24.70;46.20;;;;;;5082060;27;20635;-48
2022/07/07 04:41:09;;;;;;;1.97;1.87;;;24.70;46.10;;;;;;5083193;28;20533;-49
2022/07/07 04:43:49;;;;;;;4.70;1.60;;;24.70;46.30;;;;;;5088063;28;20509;-50
2022/07/07 04:46:29;;;;;;;2.20;1.87;;;24.60;46.20;;;;;;5066085;27;20540;-50
2022/07/07 04:49:11;;;;;;;2.60;1.77;;;24.60;46.20;;;;;;5108930;27;20541;-51
2022/07/07 04:51:58;;;;;;;1.90;1.70;;;24.60;46.20;;;;;;5040662;27;20546;-48
2022/07/07 04:54:40;;;;;;;2.13;1.93;;;24.60;46.30;;;;;;5080941;27;20531;-48
2022/07/07 04:57:21;;;;;;;1.97;1.87;;;24.60;46.30;;;;;;5045748;27;20541;-49
2022/07/07 05:00:04;;;;;;;1.87;1.77;;;24.60;46.40;;;;;;5086275;27;20525;-48
2022/07/07 05:02:44;;;;;;;2.67;1.53;;;24.60;46.50;;;;;;5083936;27;20554;-47
2022/07/07 05:05:25;;;;;;;2.83;1.90;;;24.60;46.40;;;;;;5118018;27;20532;-48
2022/07/07 05:08:06;;;;;;;1.70;1.60;;;24.60;46.50;;;;;;5024308;27;20606;-50
2022/07/07 05:10:47;;;;;;;2.00;1.80;;;24.60;46.60;;;;;;5087384;27;20517;-51
2022/07/07 05:13:28;;;;;;;1.90;1.73;;;24.60;46.60;;;;;;5087462;28;20520;-48
2022/07/07 05:16:09;;;;;;;1.83;1.33;;;24.60;46.70;;;;;;5073786;28;20587;-50
2022/07/07 05:18:50;;;;;;;2.60;1.70;;;24.60;46.60;;;;;;5105709;27;20588;-51
2022/07/07 05:21:31;;;;;;;2.47;1.83;;;24.60;46.70;;;;;;5054225;27;20565;-49
2022/07/07 05:24:12;;;;;;;2.50;2.30;;;24.60;46.90;;;;;;5080329;27;20585;-49
2022/07/07 05:26:54;;;;;;;2.60;1.97;;;24.50;46.80;;;;;;5085501;27;20545;-50
2022/07/07 05:29:35;;;;;;;2.43;2.23;;;24.50;46.90;;;;;;5087896;27;20528;-47
2022/07/07 05:32:16;;;;;;;1.70;1.50;;;24.50;47.00;;;;;;5065144;27;20554;-47
2022/07/07 05:34:56;;;;;;;2.93;1.70;;;24.50;47.00;;;;;;5127561;27;20561;-47
2022/07/07 05:37:40;;;;;;;2.37;2.00;;;24.50;47.10;;;;;;5063398;28;20583;-50
2022/07/07 05:40:21;;;;;;;2.40;1.73;;;24.50;47.30;;;;;;5083472;28;21136;-49
2022/07/07 05:43:03;;;;;;;2.13;1.73;;;24.50;47.30;;;;;;5031048;27;20552;-49
2022/07/07 05:45:44;;;;;;;1.70;1.53;;;24.40;47.30;;;;;;5080796;27;21182;-46
2022/07/07 05:48:26;;;;;;;1.97;1.77;;;24.50;47.30;;;;;;5125720;27;20525;-48
2022/07/07 05:51:07;;;;;;;1.73;1.63;;;24.50;47.20;;;;;;5120630;27;20527;-50
2022/07/07 05:53:48;;;;;;;1.80;1.70;;;24.50;47.30;;;;;;5080313;27;20533;-48
2022/07/07 05:56:29;;;;;;;1.80;1.70;;;24.50;47.60;;;;;;5074223;27;20553;-49
2022/07/07 05:59:14;;;;;;;2.20;2.00;;;24.50;48.00;;;;;;5139753;27;1249441;-50
2022/07/07 06:01:55;;;;;;;2.27;2.07;;;24.50;48.30;;;;;;5101215;27;21068;-50
2022/07/07 06:04:37;;;;;;;2.17;1.97;;;24.40;48.10;;;;;;5106771;27;20550;-50
2022/07/07 06:07:18;;;;;;;2.17;1.97;;;24.40;48.30;;;;;;5080655;27;21085;-47
2022/07/07 06:09:59;;;;;;;4.10;2.10;;;24.40;48.40;;;;;;5141485;27;21002;-49
2022/07/07 06:12:41;;;;;;;2.10;1.90;;;24.40;48.80;;;;;;5055145;27;20553;-51
2022/07/07 06:15:23;;;;;;;2.17;1.93;;;24.40;48.60;;;;;;5083403;27;20939;-48
2022/07/07 06:18:04;;;;;;;1.90;1.70;;;24.40;49.00;;;;;;5049906;27;20611;-48
2022/07/07 06:20:48;;;;;;;1.80;1.70;;;24.40;48.70;;;;;;5108242;27;20549;-51
2022/07/07 06:23:29;;;;;;;1.83;1.53;;;24.40;48.70;;;;;;5080044;27;20578;-49
2022/07/07 06:26:09;;;;;;;1.60;1.50;;;24.40;50.10;;;;;;5069165;28;20555;-49
2022/07/07 06:28:52;;;;;;;2.93;1.83;;;24.40;48.80;;;;;;5087024;28;21183;-49
2022/07/07 06:31:34;;;;;;;2.00;1.83;;;24.40;49.00;;;;;;5063303;28;21074;-48
2022/07/07 06:34:15;;;;;;;2.53;1.80;;;24.40;49.10;;;;;;5087196;28;20519;-50
2022/07/07 06:36:57;;;;;;;2.10;1.73;;;24.40;49.10;;;;;;5097865;27;20572;-50
2022/07/07 06:39:38;;;;;;;2.70;1.70;;;24.40;49.20;;;;;;5082193;27;20586;-49
2022/07/07 06:42:18;;;;;;;2.20;1.30;;;24.40;49.10;;;;;;5047689;28;20539;-49
2022/07/07 06:45:03;;;;;;;3.23;1.40;;;24.40;49.40;;;;;;5126966;27;20535;-48
2022/07/07 06:47:44;;;;;;;1.50;1.40;;;24.40;49.50;;;;;;5111738;22;20920;-47
2022/07/07 06:50:26;;;;;;;1.30;1.20;;;24.30;49.70;;;;;;5087124;27;20516;-46
2022/07/07 06:53:06;;;;;;;1.60;1.50;;;24.30;50.00;;;;;;5068253;27;1266515;-46
2022/07/07 06:55:46;;;;;;;1.47;1.37;;;24.30;49.70;;;;;;5128118;27;20598;-47
2022/07/07 06:58:28;;;;;;;1.90;1.50;;;24.30;50.50;;;;;;5086999;28;20986;-47
2022/07/07 07:01:09;;;;;;;1.70;1.60;;;24.30;50.50;;;;;;5078823;28;20534;-47
2022/07/07 07:03:51;;;;;;;2.50;1.30;;;24.30;50.20;;;;;;5083831;27;20531;-48
2022/07/07 07:06:32;;;;;;;1.57;1.47;;;24.20;50.30;;;;;;5072769;27;20537;-47
2022/07/07 07:09:14;;;;;;;3.90;1.30;;;24.20;50.10;;;;;;5121206;27;21039;-47
2022/07/07 07:11:55;;;;;;;2.07;1.40;;;24.30;50.40;;;;;;5109343;27;21371;-47
2022/07/07 07:14:38;;;;;;;1.77;1.67;;;24.30;50.20;;;;;;5088597;27;20528;-46
2022/07/07 07:17:19;;;;;;;1.60;1.40;;;24.30;50.00;;;;;;5117935;27;20555;-48
2022/07/07 07:19:59;;;;;;;2.43;1.40;;;24.30;51.30;;;;;;5135152;27;1297181;-46
2022/07/07 07:22:42;;;;;;;1.50;1.33;;;24.30;50.20;;;;;;5077604;27;20603;-47
2022/07/07 07:25:22;;;;;;;2.50;1.43;;;24.30;51.60;;;;;;5132709;27;20529;-47
2022/07/07 07:28:04;;;;;;;1.27;1.00;;;24.30;51.70;;;;;;5069361;27;20575;-48
2022/07/07 07:30:43;;;;;;;1.70;1.10;;;24.30;50.30;;;;;;5132865;27;1225627;-47
2022/07/07 07:33:25;;;;;;;1.20;1.10;;;24.30;50.40;;;;;;5087008;27;20565;-47
2022/07/07 07:36:08;;;;;;;1.40;1.30;;;24.30;50.50;;;;;;5074056;28;20590;-45
2022/07/07 07:38:50;;;;;;;1.30;1.20;;;24.30;50.80;;;;;;5086233;28;20961;-47
2022/07/07 07:41:30;;;;;;;1.70;1.60;;;24.30;51.00;;;;;;5147550;27;20548;-46
2022/07/07 07:45:09;;;;;;;1.20;1.10;;;24.30;51.00;;;;;;5128813;27;20574;-46
2022/07/07 07:47:14;;;;;;;1.73;1.30;;;24.30;51.10;;;;;;5047367;28;20614;-47
2022/07/07 07:49:56;;;;;;;1.53;1.00;;;24.30;51.10;;;;;;5107797;27;21094;-48
2022/07/07 07:52:37;;;;;;;1.50;1.00;;;24.20;51.10;;;;;;5077872;27;20612;-47
2022/07/07 07:55:19;;;;;;;1.13;1.03;;;24.30;51.30;;;;;;5101236;27;21068;-47
2022/07/07 07:58:00;;;;;;;1.80;1.17;;;24.30;51.20;;;;;;5050376;27;20546;-47
2022/07/07 08:00:41;;;;;;;2.03;0.87;;;24.20;51.30;;;;;;5084830;28;20940;-47
2022/07/07 08:03:22;;;;;;;1.53;1.00;;;24.30;51.40;;;;;;5131821;27;21121;-47
2022/07/07 08:06:04;;;;;;;1.03;0.90;;;24.30;51.30;;;;;;5121721;27;21230;-47
2022/07/07 08:08:45;;;;;;;1.80;0.97;;;24.20;51.40;;;;;;5099839;27;20535;-47
2022/07/07 08:11:27;;;;;;;1.53;1.10;;;24.20;51.50;;;;;;5101973;27;20532;-48
2022/07/07 08:14:08;;;;;;;1.57;0.90;;;24.20;51.50;;;;;;5117159;27;20539;-47
2022/07/07 08:16:49;;;;;;;1.60;1.10;;;24.20;51.90;;;;;;5066260;27;20546;-47
2022/07/07 08:19:31;;;;;;;1.33;0.93;;;24.20;52.20;;;;;;5087248;27;20938;-46
2022/07/07 08:22:12;;;;;;;0.93;0.80;;;24.20;52.40;;;;;;5056631;27;20539;-47
2022/07/07 08:24:54;;;;;;;1.17;0.90;;;24.20;51.90;;;;;;5085153;28;20540;-47
2022/07/07 08:27:35;;;;;;;1.00;0.70;;;24.20;51.60;;;;;;5045053;27;20547;-48
2022/07/07 08:30:17;;;;;;;1.00;0.83;;;24.20;51.60;;;;;;5090253;27;20550;-45
2022/07/07 08:32:58;;;;;;;2.77;1.17;;;24.20;51.40;;;;;;5046955;27;20561;-47
2022/07/07 08:35:39;;;;;;;1.30;1.07;;;24.20;52.00;;;;;;5082781;28;20591;-48
2022/07/07 08:38:20;;;;;;;1.00;0.80;;;24.10;52.10;;;;;;5068690;28;20584;-47
2022/07/07 08:41:03;;;;;;;0.93;0.70;;;24.10;52.00;;;;;;5073898;28;20593;-47
2022/07/07 08:43:44;;;;;;;4.50;0.83;;;24.10;52.00;;;;;;5072991;28;20635;-47
2022/07/07 08:46:25;;;;;;;3.17;1.57;;;24.10;52.50;;;;;;5112911;27;20574;-48
2022/07/07 08:49:06;;;;;;;1.83;0.60;;;24.10;51.80;;;;;;5085158;27;20547;-46
2022/07/07 08:51:52;;;;;;;2.00;1.13;;;24.00;51.60;;;;;;5056070;27;20558;-47
2022/07/07 08:54:34;;;;;;;2.03;1.23;;;24.00;51.40;;;;;;5122361;27;21132;-46
2022/07/07 08:57:15;;;;;;;3.37;1.00;;;24.00;51.20;;;;;;5045163;28;20617;-46
2022/07/07 08:59:57;;;;;;;1.83;0.90;;;24.00;51.20;;;;;;5086697;27;20657;-47
2022/07/07 09:02:38;;;;;;;1.47;1.00;;;24.00;51.20;;;;;;5103553;27;21142;-47
2022/07/07 09:05:20;;;;;;;2.70;1.03;;;24.00;51.10;;;;;;5074191;28;20529;-47
2022/07/07 09:08:01;;;;;;;1.43;0.80;;;24.00;51.10;;;;;;5084571;27;20617;-47
2022/07/07 09:10:42;;;;;;;5.97;1.03;;;24.00;51.30;;;;;;5133632;27;21118;-48
2022/07/07 09:13:25;;;;;;;5.30;1.00;;;23.90;51.10;;;;;;5079799;27;20583;-47
2022/07/07 09:16:15;;;;;;;3.70;0.90;;;24.00;51.20;;;;;;5079147;28;20596;-47
2022/07/07 09:18:56;;;;;;;1.30;0.80;;;23.90;51.20;;;;;;5106070;27;20530;-47
2022/07/07 09:21:43;;;;;;;2.87;1.10;;;23.90;51.30;;;;;;5117673;27;20544;-47
2022/07/07 09:24:23;;;;;;;2.40;1.03;;;23.90;51.10;;;;;;5120390;27;20634;-47
2022/07/07 09:27:08;;;;;;;1.60;1.00;;;23.90;51.00;;;;;;5095416;27;20559;-48
2022/07/07 09:29:48;;;;;;;2.00;1.00;;;23.90;50.90;;;;;;5086458;27;20528;-47
2022/07/07 09:32:30;;;;;;;3.23;1.00;;;23.90;50.80;;;;;;5058964;27;20958;-72
2022/07/07 09:38:22;;;;;;;2.90;1.00;;;23.90;50.40;;;;;;5105695;27;20534;-45
2022/07/07 09:41:04;;;;;;;1.90;0.70;;;23.90;50.50;;;;;;5116420;27;20583;-46
2022/07/07 09:43:48;;;;;;;1.27;0.60;;;23.90;50.40;;;;;;5070582;28;20579;-47
2022/07/07 09:46:29;;;;;;;2.50;0.80;;;23.80;50.10;;;;;;5060531;27;20557;-47
2022/07/07 09:49:12;;;;;;;3.83;0.83;;;23.80;49.90;;;;;;5087019;28;20871;-47
2022/07/07 09:51:53;;;;;;;1.20;0.63;;;23.80;49.80;;;;;;5054204;27;21136;-46
2022/07/07 09:54:33;;;;;;;2.40;0.70;;;23.80;50.20;;;;;;5120277;27;20537;-49
2022/07/07 09:57:12;;;;;;;3.53;1.03;;;23.70;50.20;;;;;;5060615;27;20968;-47
2022/07/07 09:59:53;;;;;;;1.90;0.90;;;23.80;50.20;;;;;;5128095;27;20577;-47
2022/07/07 10:02:38;;;;;;;2.43;0.93;;;23.80;50.20;;;;;;5056599;27;20549;-47
2022/07/07 10:05:21;;;;;;;2.37;0.93;;;23.80;50.00;;;;;;5083877;28;20543;-47
2022/07/07 10:08:06;;;;;;;2.13;0.80;;;23.80;50.00;;;;;;5041067;27;20561;-47
2022/07/07 10:10:48;;;;;;;1.73;0.80;;;23.70;50.00;;;;;;5101845;27;20587;-47
2022/07/07 10:13:32;;;;;;;3.47;0.90;;;23.80;50.10;;;;;;5106158;27;20582;-47
2022/07/07 10:16:12;;;;;;;3.40;0.90;;;23.70;49.80;;;;;;5108505;27;20532;-47
2022/07/07 10:18:52;;;;;;;2.60;1.23;;;23.70;49.90;;;;;;5121594;27;20541;-46
2022/07/07 10:21:33;;;;;;;1.77;0.77;;;23.70;49.80;;;;;;5078050;27;21134;-46
2022/07/07 10:24:20;;;;;;;3.70;0.80;;;23.80;49.90;;;;;;5057946;27;20533;-47
2022/07/07 10:27:02;;;;;;;4.50;0.90;;;23.80;49.90;;;;;;5045296;27;20621;-46
2022/07/07 10:29:44;;;;;;;2.63;0.77;;;23.70;49.80;;;;;;5088091;28;20574;-47
2022/07/07 10:32:32;;;;;;;1.67;0.73;;;23.70;49.70;;;;;;5043824;27;20621;-47
2022/07/07 10:35:15;;;;;;;2.73;1.00;;;23.70;49.80;;;;;;5122972;27;20946;-47
2022/07/07 10:37:57;;;;;;;2.23;0.93;;;23.70;49.80;;;;;;5069991;27;20602;-48
2022/07/07 10:40:38;;;;;;;2.13;0.70;;;23.70;49.70;;;;;;5105787;27;20943;-47
2022/07/07 10:43:26;;;;;;;3.70;1.20;;;23.70;49.70;;;;;;5077731;27;20535;-47
2022/07/07 10:46:09;;;;;;;2.10;0.50;;;23.70;49.60;;;;;;5107416;27;20538;-46
2022/07/07 10:48:53;;;;;;;1.97;0.80;;;23.70;49.60;;;;;;5104965;27;20610;-47
2022/07/07 10:51:52;;;;;;;2.50;0.90;;;23.70;49.70;;;;;;5098590;27;20608;-47
2022/07/07 10:54:38;;;;;;;0.90;0.67;;;23.60;49.60;;;;;;5079631;27;20532;-47
2022/07/07 10:57:19;;;;;;;1.50;0.57;;;23.60;49.60;;;;;;5085672;27;20556;-46
2022/07/07 11:00:08;;;;;;;1.70;0.60;;;23.60;49.60;;;;;;5079371;27;20522;-47
2022/07/07 11:02:51;;;;;;;1.43;0.60;;;23.60;49.60;;;;;;5052462;27;20604;-45
2022/07/07 11:05:34;;;;;;;4.57;1.47;;;23.60;49.50;;;;;;5081759;28;20553;-46
2022/07/07 11:08:16;;;;;;;1.93;1.13;;;23.70;49.50;;;;;;5123934;27;20589;-45
2022/07/07 11:11:04;;;;;;;1.10;0.80;;;23.70;49.30;;;;;;5118955;27;20579;-48
2022/07/07 11:13:44;;;;;;;2.03;0.67;;;23.70;49.50;;;;;;5124935;27;20531;-47
2022/07/07 11:16:28;;;;;;;5.47;1.10;;;23.60;49.50;;;;;;5055655;28;21152;-47
2022/07/07 11:19:10;;;;;;;1.40;0.53;;;23.60;49.50;;;;;;5123290;27;21131;-48
2022/07/07 11:21:51;;;;;;;2.07;0.97;;;23.60;49.40;;;;;;5060604;28;20536;-48
2022/07/07 11:24:30;;;;;;;3.47;0.70;;;23.60;49.50;;;;;;5136580;27;1226551;-47
2022/07/07 11:27:11;;;;;;;2.63;0.83;;;23.60;49.60;;;;;;5041356;27;20558;-47
2022/07/07 11:29:57;;;;;;;1.80;0.90;;;23.60;49.50;;;;;;5124936;27;20536;-47
2022/07/07 11:32:40;;;;;;;1.60;0.90;;;23.60;49.40;;;;;;5099334;27;20535;-46
2022/07/07 11:35:20;;;;;;;2.20;0.90;;;23.60;49.50;;;;;;5068777;27;20609;-46
2022/07/07 11:38:00;;;;;;;2.70;0.97;;;23.60;49.50;;;;;;5046881;27;20607;-46
2022/07/07 11:40:42;;;;;;;2.00;1.00;;;23.60;49.60;;;;;;5103443;27;21012;-47
2022/07/07 11:43:23;;;;;;;3.50;1.20;;;23.70;49.80;;;;;;5081920;28;20877;-47
2022/07/07 11:46:04;;;;;;;3.77;1.10;;;23.60;50.50;;;;;;5047319;28;20552;-47
2022/07/07 11:48:45;;;;;;;2.00;1.10;;;23.50;50.60;;;;;;5080416;27;20531;-47
2022/07/07 11:51:30;;;;;;;2.07;0.80;;;23.50;50.60;;;;;;5111618;27;20876;-47
2022/07/07 11:54:11;;;;;;;2.70;0.80;;;23.50;50.60;;;;;;5064294;28;20534;-47
2022/07/07 11:56:51;;;;;;;2.03;0.70;;;23.50;50.60;;;;;;5101037;27;20604;-47
2022/07/07 11:59:31;;;;;;;4.93;1.00;;;23.50;50.50;;;;;;5127742;27;20544;-46
2022/07/07 12:02:19;;;;;;;2.67;1.00;;;23.50;50.60;;;;;;5063478;27;20548;-46
2022/07/07 12:05:00;;;;;;;2.87;0.87;;;23.50;50.40;;;;;;5078888;28;20581;-46
2022/07/07 12:07:43;;;;;;;2.80;1.47;;;23.50;50.40;;;;;;5079100;27;20543;-46
2022/07/07 12:10:27;;;;;;;5.50;1.00;;;23.50;50.50;;;;;;5081089;27;20557;-46
2022/07/07 12:13:10;;;;;;;1.00;0.63;;;23.50;50.40;;;;;;5096596;27;20967;-47
2022/07/07 12:15:53;;;;;;;2.70;0.80;;;23.50;50.20;;;;;;5081416;27;20595;-46
2022/07/07 12:18:36;;;;;;;2.30;0.83;;;23.50;50.20;;;;;;5087724;27;20531;-46
2022/07/07 12:21:23;;;;;;;2.80;1.10;;;23.40;50.10;;;;;;5071815;28;20536;-47
2022/07/07 12:24:03;;;;;;;1.10;0.80;;;23.20;50.70;;;;;;5071113;28;20537;-46
2022/07/07 12:26:48;;;;;;;2.63;1.00;;;23.30;50.70;;;;;;5060594;27;21079;-47
2022/07/07 12:29:29;;;;;;;2.30;0.80;;;23.30;50.50;;;;;;5087767;27;20526;-47
2022/07/07 12:32:08;;;;;;;6.30;0.93;;;23.30;50.50;;;;;;5083026;27;20560;-46
2022/07/07 12:34:48;;;;;;;2.80;0.90;;;23.30;50.50;;;;;;5085560;27;20578;-48
2022/07/07 13:57:13;;;;;;;1.60;0.93;;;23.20;51.00;;;;;;5108144;27;20568;-48
2022/07/07 13:59:53;;;;;;;1.60;0.80;;;23.20;52.40;;;;;;5087800;27;20528;-48
2022/07/07 14:02:33;;;;;;;2.40;1.00;;;23.20;52.30;;;;;;5061180;27;20957;-48
2022/07/07 14:05:16;;;;;;;2.43;1.27;;;23.20;52.20;;;;;;5126512;27;20580;-49
2022/07/07 14:07:56;;;;;;;1.67;1.00;;;23.20;52.10;;;;;;5014181;28;20561;-48
2022/07/07 14:10:36;;;;;;;1.97;1.10;;;23.20;51.90;;;;;;5087333;28;21124;-48
2022/07/07 14:13:17;;;;;;;2.40;1.03;;;23.30;52.00;;;;;;5079751;28;20547;-48
2022/07/07 14:15:57;;;;;;;2.90;1.20;;;23.30;51.90;;;;;;5098159;27;20536;-49
2022/07/07 14:18:37;;;;;;;1.10;0.90;;;23.30;51.90;;;;;;5128421;27;20522;-48
2022/07/07 14:21:17;;;;;;;3.57;1.80;;;23.30;51.80;;;;;;5123823;27;20587;-49
2022/07/07 14:23:56;;;;;;;2.03;1.43;;;23.30;51.70;;;;;;5121047;27;20531;-49
2022/07/07 14:26:36;;;;;;;3.03;2.10;;;23.30;51.60;;;;;;5062669;27;20977;-49
2022/07/07 14:29:16;;;;;;;2.30;1.90;;;23.30;51.60;;;;;;5084360;27;20573;-48
2022/07/07 14:31:58;;;;;;;2.60;1.60;;;23.30;51.60;;;;;;5044973;28;20612;-48
2022/07/07 14:34:42;;;;;;;2.93;1.60;;;23.30;51.50;;;;;;5087504;27;20525;-49
2022/07/07 14:37:22;;;;;;;2.27;1.13;;;23.40;51.60;;;;;;5065137;27;20599;-48
2022/07/07 14:40:04;;;;;;;2.17;1.50;;;23.40;51.40;;;;;;5126228;27;21040;-49
2022/07/07 14:42:45;;;;;;;1.63;1.50;;;23.40;51.50;;;;;;5056967;27;20606;-48
2022/07/07 14:45:25;;;;;;;1.47;1.10;;;23.30;51.50;;;;;;5083011;28;20599;-48
2022/07/07 14:48:05;;;;;;;2.30;1.60;;;23.40;51.60;;;;;;5085275;27;20549;-48
2022/07/07 14:50:46;;;;;;;2.50;1.17;;;23.40;51.70;;;;;;5108032;27;20524;-48
2022/07/07 14:53:26;;;;;;;1.23;1.13;;;23.40;51.70;;;;;;5123001;27;20597;-49
2022/07/07 14:56:06;;;;;;;2.17;1.60;;;23.40;51.70;;;;;;5094044;27;20564;-48
2022/07/07 14:58:47;;;;;;;2.93;1.77;;;23.40;51.70;;;;;;5087439;28;21107;-49
2022/07/07 15:01:27;;;;;;;2.47;1.33;;;23.40;51.70;;;;;;5080272;28;20594;-48
2022/07/07 15:04:08;;;;;;;3.17;1.10;;;23.40;51.70;;;;;;5086953;28;20572;-48
2022/07/07 15:06:48;;;;;;;2.73;1.60;;;23.40;51.70;;;;;;5068008;27;20536;-48
2022/07/07 15:09:28;;;;;;;2.10;1.10;;;23.40;51.60;;;;;;5124624;27;20535;-49
2022/07/07 15:12:10;;;;;;;1.93;1.07;;;23.50;51.80;;;;;;5073256;27;20958;-48
2022/07/07 15:14:50;;;;;;;2.20;1.37;;;23.50;51.80;;;;;;5088001;28;20571;-49
2022/07/07 15:17:31;;;;;;;2.40;1.50;;;23.40;51.70;;;;;;5102299;27;20611;-49
2022/07/07 15:20:12;;;;;;;2.17;1.30;;;23.50;51.60;;;;;;5135023;27;21007;-48
2022/07/07 15:22:53;;;;;;;1.73;1.23;;;23.50;51.70;;;;;;5034158;27;20549;-49
2022/07/07 15:25:33;;;;;;;1.83;1.20;;;23.50;51.60;;;;;;5081933;27;21053;-48